GLO712 SBMN-SPGM
Flight info
| Callsign | GLO712 |
|---|---|
| Flight time | 2h 48m |
| Altitude | 38000 |
| Route | MNS UM665 MUGED UL306 NILSA DCT DALGI DCT LUVSO |
| Aircraft | B737/M-SDE2E3FGHIRWXY/LB1 |
Departure
| Time | 2026-05-06 17:10 |
|---|---|
| Airport | Ponta Pelada Airport / Manaus Air Base (SBMN) |
Arrival
| Time | 2026-05-06 19:59 |
|---|---|
| Airport | Tingo Maria Airport (SPGM) |
| Time | Latitude | Longitude | Altitude | Speed | Heading |
|---|---|---|---|---|---|
| 2026-05-06 16:47 | -3.14483 | -59.98715 | 259 ft | 0 kts | 345° |
| 2026-05-06 16:53 | -3.14501 | -59.98711 | 259 ft | 3 kts | 4° |
| 2026-05-06 16:54 | -3.14517 | -59.98715 | 259 ft | 0 kts | 39° |
| 2026-05-06 16:57 | -3.14516 | -59.98714 | 259 ft | 1 kts | 45° |
| 2026-05-06 16:57 | -3.14514 | -59.98706 | 275 ft | 2 kts | 73° |
| 2026-05-06 16:57 | -3.14506 | -59.98679 | 259 ft | 6 kts | 73° |
| 2026-05-06 16:58 | -3.14491 | -59.98628 | 259 ft | 9 kts | 73° |
| 2026-05-06 16:58 | -3.14468 | -59.98559 | 259 ft | 12 kts | 68° |
| 2026-05-06 16:58 | -3.14443 | -59.98473 | 259 ft | 14 kts | 80° |
| 2026-05-06 16:58 | -3.14423 | -59.98371 | 259 ft | 15 kts | 83° |
| 2026-05-06 16:59 | -3.14443 | -59.98316 | 259 ft | 7 kts | 144° |
| 2026-05-06 16:59 | -3.14484 | -59.98298 | 259 ft | 7 kts | 148° |
| 2026-05-06 16:59 | -3.14502 | -59.98252 | 259 ft | 8 kts | 86° |
| 2026-05-06 16:59 | -3.14488 | -59.98192 | 260 ft | 10 kts | 75° |
| 2026-05-06 17:00 | -3.14468 | -59.98120 | 260 ft | 12 kts | 76° |
| 2026-05-06 17:00 | -3.14445 | -59.98022 | 260 ft | 18 kts | 76° |
| 2026-05-06 17:00 | -3.14401 | -59.97889 | 259 ft | 22 kts | 70° |
| 2026-05-06 17:00 | -3.14376 | -59.97775 | 259 ft | 10 kts | 119° |
| 2026-05-06 17:01 | -3.14390 | -59.97775 | 259 ft | 2 kts | 256° |
| 2026-05-06 17:01 | -3.14391 | -59.97798 | 259 ft | 5 kts | 262° |
| 2026-05-06 17:01 | -3.14395 | -59.97813 | 259 ft | 0 kts | 257° |
| 2026-05-06 17:10 | -3.14478 | -59.98150 | 260 ft | 99 kts | 256° |
| 2026-05-06 17:10 | -3.14722 | -59.99100 | 290 ft | 178 kts | 254° |
| 2026-05-06 17:10 | -3.14887 | -60.00447 | 871 ft | 206 kts | 276° |
| 2026-05-06 17:11 | -3.14700 | -60.01383 | 1183 ft | 203 kts | 291° |
| 2026-05-06 17:11 | -3.14091 | -60.02609 | 1414 ft | 193 kts | 308° |
| 2026-05-06 17:11 | -3.13254 | -60.03610 | 1627 ft | 183 kts | 314° |
| 2026-05-06 17:11 | -3.12406 | -60.04523 | 2110 ft | 179 kts | 319° |
| 2026-05-06 17:12 | -3.11470 | -60.05405 | 2522 ft | 193 kts | 320° |
| 2026-05-06 17:12 | -3.10501 | -60.06313 | 2859 ft | 192 kts | 321° |
| 2026-05-06 17:12 | -3.09518 | -60.07214 | 3292 ft | 193 kts | 321° |
| 2026-05-06 17:12 | -3.08520 | -60.08146 | 3735 ft | 199 kts | 320° |
| 2026-05-06 17:13 | -3.07532 | -60.09136 | 4148 ft | 202 kts | 318° |
| 2026-05-06 17:13 | -3.06538 | -60.10145 | 4602 ft | 204 kts | 319° |
| 2026-05-06 17:13 | -3.05573 | -60.11211 | 5011 ft | 214 kts | 301° |
| 2026-05-06 17:13 | -3.05264 | -60.12649 | 5452 ft | 211 kts | 273° |
| 2026-05-06 17:14 | -3.05198 | -60.14126 | 5887 ft | 219 kts | 273° |
| 2026-05-06 17:14 | -3.05122 | -60.15711 | 6376 ft | 237 kts | 273° |
| 2026-05-06 17:14 | -3.05069 | -60.17406 | 6836 ft | 247 kts | 271° |
| 2026-05-06 17:14 | -3.05070 | -60.19124 | 7245 ft | 246 kts | 269° |
| 2026-05-06 17:15 | -3.05108 | -60.20837 | 7668 ft | 246 kts | 268° |
| 2026-05-06 17:15 | -3.05171 | -60.22535 | 8095 ft | 245 kts | 267° |
| 2026-05-06 17:15 | -3.05250 | -60.24235 | 8516 ft | 245 kts | 267° |
| 2026-05-06 17:15 | -3.05344 | -60.26000 | 9004 ft | 264 kts | 266° |
| 2026-05-06 17:16 | -3.05451 | -60.27872 | 9467 ft | 272 kts | 266° |
| 2026-05-06 17:16 | -3.05568 | -60.29815 | 10030 ft | 285 kts | 266° |
| 2026-05-06 17:16 | -3.05692 | -60.31818 | 10765 ft | 290 kts | 266° |
| 2026-05-06 17:16 | -3.05819 | -60.33841 | 11557 ft | 293 kts | 266° |
| 2026-05-06 17:17 | -3.05950 | -60.35883 | 12350 ft | 296 kts | 266° |
| 2026-05-06 17:17 | -3.06082 | -60.37952 | 13110 ft | 300 kts | 266° |
| 2026-05-06 17:17 | -3.06216 | -60.40045 | 13875 ft | 303 kts | 266° |
| 2026-05-06 17:17 | -3.06358 | -60.42134 | 14551 ft | 306 kts | 266° |
| 2026-05-06 17:18 | -3.06506 | -60.44270 | 15226 ft | 309 kts | 265° |
| 2026-05-06 17:18 | -3.06656 | -60.46427 | 15920 ft | 312 kts | 266° |
| 2026-05-06 17:18 | -3.06808 | -60.48601 | 16599 ft | 315 kts | 266° |
| 2026-05-06 17:18 | -3.06960 | -60.50798 | 17279 ft | 318 kts | 265° |
| 2026-05-06 17:19 | -3.07114 | -60.53013 | 17939 ft | 321 kts | 266° |
| 2026-05-06 17:19 | -3.07269 | -60.55252 | 18550 ft | 324 kts | 265° |
| 2026-05-06 17:19 | -3.07425 | -60.57514 | 19104 ft | 327 kts | 265° |
| 2026-05-06 17:19 | -3.07583 | -60.59796 | 19660 ft | 331 kts | 265° |
| 2026-05-06 17:20 | -3.07742 | -60.62101 | 20210 ft | 334 kts | 265° |
| 2026-05-06 17:20 | -3.07903 | -60.64433 | 20761 ft | 337 kts | 265° |
| 2026-05-06 17:20 | -3.08066 | -60.66783 | 21302 ft | 340 kts | 265° |
| 2026-05-06 17:20 | -3.08229 | -60.69159 | 21834 ft | 344 kts | 265° |
| 2026-05-06 17:21 | -3.08395 | -60.71555 | 22345 ft | 347 kts | 265° |
| 2026-05-06 17:21 | -3.08562 | -60.73979 | 22851 ft | 351 kts | 265° |
| 2026-05-06 17:21 | -3.08730 | -60.76426 | 23358 ft | 354 kts | 265° |
| 2026-05-06 17:21 | -3.08900 | -60.78893 | 23810 ft | 357 kts | 265° |
| 2026-05-06 17:22 | -3.09066 | -60.81377 | 24264 ft | 359 kts | 265° |
| 2026-05-06 17:22 | -3.09229 | -60.83866 | 24741 ft | 359 kts | 265° |
| 2026-05-06 17:22 | -3.09393 | -60.86366 | 25197 ft | 361 kts | 265° |
| 2026-05-06 17:22 | -3.09563 | -60.88878 | 25650 ft | 362 kts | 265° |
| 2026-05-06 17:23 | -3.09760 | -60.91396 | 26093 ft | 364 kts | 265° |
| 2026-05-06 17:23 | -3.09973 | -60.93927 | 26519 ft | 366 kts | 265° |
| 2026-05-06 17:23 | -3.10191 | -60.96473 | 26946 ft | 368 kts | 265° |
| 2026-05-06 17:23 | -3.10410 | -60.99029 | 27377 ft | 369 kts | 265° |
| 2026-05-06 17:24 | -3.10628 | -61.01594 | 27803 ft | 371 kts | 265° |
| 2026-05-06 17:24 | -3.10846 | -61.04175 | 28206 ft | 373 kts | 265° |
| 2026-05-06 17:24 | -3.11063 | -61.06765 | 28599 ft | 375 kts | 265° |
| 2026-05-06 17:24 | -3.11281 | -61.09375 | 29004 ft | 377 kts | 265° |
| 2026-05-06 17:25 | -3.11499 | -61.11999 | 29393 ft | 379 kts | 265° |
| 2026-05-06 17:25 | -3.11719 | -61.14635 | 29774 ft | 381 kts | 265° |
| 2026-05-06 17:25 | -3.11939 | -61.17283 | 30163 ft | 383 kts | 265° |
| 2026-05-06 17:25 | -3.12159 | -61.19926 | 30454 ft | 385 kts | 265° |
| 2026-05-06 17:26 | -3.12382 | -61.22608 | 30729 ft | 388 kts | 265° |
| 2026-05-06 17:26 | -3.12605 | -61.25300 | 31028 ft | 389 kts | 265° |
| 2026-05-06 17:26 | -3.12826 | -61.27964 | 31334 ft | 390 kts | 265° |
| 2026-05-06 17:26 | -3.13051 | -61.30676 | 31619 ft | 392 kts | 265° |
| 2026-05-06 17:27 | -3.13277 | -61.33398 | 31874 ft | 394 kts | 265° |
| 2026-05-06 17:27 | -3.13505 | -61.36139 | 32121 ft | 396 kts | 265° |
| 2026-05-06 17:27 | -3.13733 | -61.38894 | 32377 ft | 397 kts | 265° |
| 2026-05-06 17:27 | -3.13962 | -61.41650 | 32623 ft | 399 kts | 265° |
| 2026-05-06 17:28 | -3.14192 | -61.44422 | 32866 ft | 400 kts | 265° |
| 2026-05-06 17:28 | -3.14422 | -61.47203 | 33104 ft | 401 kts | 265° |
| 2026-05-06 17:28 | -3.14653 | -61.49991 | 33327 ft | 403 kts | 265° |
| 2026-05-06 17:28 | -3.14884 | -61.52786 | 33522 ft | 404 kts | 265° |
| 2026-05-06 17:29 | -3.15117 | -61.55598 | 33717 ft | 406 kts | 265° |
| 2026-05-06 17:29 | -3.15351 | -61.58420 | 33908 ft | 407 kts | 265° |
| 2026-05-06 17:29 | -3.15584 | -61.61244 | 34080 ft | 409 kts | 265° |
| 2026-05-06 17:29 | -3.15819 | -61.64086 | 34243 ft | 410 kts | 265° |
| 2026-05-06 17:30 | -3.16054 | -61.66930 | 34402 ft | 410 kts | 265° |
| 2026-05-06 17:30 | -3.16289 | -61.69774 | 34552 ft | 411 kts | 265° |
| 2026-05-06 17:30 | -3.16525 | -61.72632 | 34686 ft | 412 kts | 265° |
| 2026-05-06 17:30 | -3.16762 | -61.75495 | 34836 ft | 413 kts | 265° |
| 2026-05-06 17:31 | -3.16999 | -61.78365 | 34951 ft | 414 kts | 265° |
| 2026-05-06 17:31 | -3.17236 | -61.81241 | 35080 ft | 415 kts | 265° |
| 2026-05-06 17:31 | -3.17474 | -61.84124 | 35211 ft | 416 kts | 265° |
| 2026-05-06 17:31 | -3.17709 | -61.86976 | 35347 ft | 417 kts | 265° |
| 2026-05-06 17:32 | -3.17947 | -61.89866 | 35460 ft | 418 kts | 265° |
| 2026-05-06 17:32 | -3.18186 | -61.92770 | 35571 ft | 419 kts | 265° |
| 2026-05-06 17:32 | -3.18426 | -61.95677 | 35685 ft | 420 kts | 265° |
| 2026-05-06 17:32 | -3.18665 | -61.98586 | 35799 ft | 420 kts | 265° |
| 2026-05-06 17:33 | -3.18905 | -62.01502 | 35909 ft | 420 kts | 265° |
| 2026-05-06 17:33 | -3.19386 | -62.07341 | 36083 ft | 422 kts | 265° |
| 2026-05-06 17:34 | -3.19868 | -62.13210 | 36248 ft | 426 kts | 265° |
| 2026-05-06 17:34 | -3.20283 | -62.19213 | 36699 ft | 433 kts | 266° |
| 2026-05-06 17:34 | -3.20466 | -62.22207 | 37183 ft | 430 kts | 266° |
| 2026-05-06 17:35 | -3.20652 | -62.25183 | 37602 ft | 429 kts | 266° |
| 2026-05-06 17:35 | -3.20844 | -62.28156 | 37973 ft | 428 kts | 266° |
| 2026-05-06 17:35 | -3.21046 | -62.31148 | 37993 ft | 433 kts | 265° |
| 2026-05-06 17:36 | -3.21728 | -62.40199 | 38009 ft | 434 kts | 265° |
| 2026-05-06 17:36 | -3.22182 | -62.46183 | 37992 ft | 427 kts | 265° |
| 2026-05-06 17:37 | -3.22625 | -62.52071 | 38014 ft | 424 kts | 265° |
| 2026-05-06 17:37 | -3.23064 | -62.57957 | 38007 ft | 425 kts | 265° |
| 2026-05-06 17:38 | -3.23504 | -62.63860 | 38015 ft | 426 kts | 265° |
| 2026-05-06 17:38 | -3.23840 | -62.68374 | 38003 ft | 427 kts | 265° |
| 2026-05-06 17:39 | -3.24279 | -62.74276 | 38007 ft | 428 kts | 265° |
| 2026-05-06 17:39 | -3.24721 | -62.80215 | 38005 ft | 428 kts | 265° |
| 2026-05-06 17:40 | -3.25164 | -62.86176 | 37998 ft | 431 kts | 265° |
| 2026-05-06 17:40 | -3.25606 | -62.92140 | 37992 ft | 429 kts | 265° |
| 2026-05-06 17:41 | -3.26046 | -62.98067 | 37998 ft | 426 kts | 265° |
| 2026-05-06 17:41 | -3.26483 | -63.03959 | 37998 ft | 424 kts | 265° |
| 2026-05-06 17:42 | -3.26917 | -63.09829 | 38009 ft | 422 kts | 265° |
| 2026-05-06 17:42 | -3.27351 | -63.15695 | 38004 ft | 422 kts | 265° |
| 2026-05-06 17:43 | -3.27785 | -63.21558 | 37995 ft | 423 kts | 265° |
| 2026-05-06 17:43 | -3.28219 | -63.27434 | 37999 ft | 424 kts | 265° |
| 2026-05-06 17:44 | -3.28654 | -63.33326 | 37999 ft | 425 kts | 265° |
| 2026-05-06 17:44 | -3.29090 | -63.39233 | 37997 ft | 426 kts | 265° |
| 2026-05-06 17:45 | -3.29526 | -63.45150 | 37998 ft | 427 kts | 265° |
| 2026-05-06 17:45 | -3.29964 | -63.51092 | 38011 ft | 428 kts | 265° |
| 2026-05-06 17:46 | -3.30402 | -63.57049 | 38013 ft | 431 kts | 265° |
| 2026-05-06 17:46 | -3.30842 | -63.63044 | 37985 ft | 431 kts | 265° |
| 2026-05-06 17:47 | -3.31340 | -63.68993 | 37984 ft | 428 kts | 259° |
| 2026-05-06 17:47 | -3.33190 | -63.74549 | 37994 ft | 423 kts | 240° |
| 2026-05-06 17:48 | -3.36357 | -63.79490 | 37993 ft | 421 kts | 234° |
| 2026-05-06 17:48 | -3.39666 | -63.84327 | 38002 ft | 422 kts | 234° |
| 2026-05-06 17:49 | -3.42956 | -63.89193 | 37997 ft | 423 kts | 234° |
| 2026-05-06 17:49 | -3.46230 | -63.94090 | 38003 ft | 424 kts | 235° |
| 2026-05-06 17:50 | -3.49510 | -63.99015 | 37997 ft | 425 kts | 235° |
| 2026-05-06 17:50 | -3.52792 | -64.03943 | 37999 ft | 426 kts | 235° |
| 2026-05-06 17:51 | -3.56075 | -64.08875 | 37999 ft | 426 kts | 235° |
| 2026-05-06 17:51 | -3.59363 | -64.13813 | 37993 ft | 426 kts | 235° |
| 2026-05-06 17:52 | -3.62652 | -64.18754 | 38002 ft | 427 kts | 235° |
| 2026-05-06 17:52 | -3.65944 | -64.23700 | 37999 ft | 427 kts | 235° |
| 2026-05-06 17:53 | -3.69238 | -64.28650 | 38003 ft | 427 kts | 235° |
| 2026-05-06 17:53 | -3.72529 | -64.33594 | 38000 ft | 427 kts | 235° |
| 2026-05-06 17:54 | -3.75825 | -64.38544 | 38001 ft | 427 kts | 235° |
| 2026-05-06 17:54 | -3.79122 | -64.43498 | 38000 ft | 427 kts | 236° |
| 2026-05-06 17:55 | -3.82420 | -64.48456 | 37995 ft | 427 kts | 235° |
| 2026-05-06 17:55 | -3.85693 | -64.53378 | 37997 ft | 427 kts | 235° |
| 2026-05-06 17:56 | -3.88986 | -64.58335 | 37995 ft | 428 kts | 236° |
| 2026-05-06 17:56 | -3.92257 | -64.63306 | 37991 ft | 427 kts | 235° |
| 2026-05-06 17:57 | -3.95547 | -64.68260 | 38000 ft | 427 kts | 236° |
| 2026-05-06 17:57 | -3.98836 | -64.73214 | 37992 ft | 427 kts | 236° |
| 2026-05-06 17:58 | -4.02126 | -64.78175 | 38004 ft | 428 kts | 236° |
| 2026-05-06 17:58 | -4.05424 | -64.83137 | 37993 ft | 428 kts | 235° |
| 2026-05-06 17:59 | -4.08734 | -64.88094 | 37998 ft | 428 kts | 235° |
| 2026-05-06 17:59 | -4.12038 | -64.93045 | 37990 ft | 427 kts | 235° |
| 2026-05-06 18:00 | -4.15312 | -64.97956 | 37996 ft | 426 kts | 235° |
| 2026-05-06 18:00 | -4.18602 | -65.02893 | 37996 ft | 426 kts | 235° |
| 2026-05-06 18:01 | -4.21886 | -65.07821 | 37996 ft | 425 kts | 235° |
| 2026-05-06 18:01 | -4.24639 | -65.11954 | 37997 ft | 425 kts | 235° |
| 2026-05-06 18:02 | -4.27926 | -65.16889 | 37993 ft | 426 kts | 235° |
| 2026-05-06 18:02 | -4.31188 | -65.21804 | 37996 ft | 427 kts | 235° |
| 2026-05-06 18:03 | -4.34473 | -65.26760 | 37995 ft | 428 kts | 235° |
| 2026-05-06 18:03 | -4.37769 | -65.31733 | 37997 ft | 429 kts | 235° |
| 2026-05-06 18:04 | -4.41071 | -65.36715 | 37995 ft | 430 kts | 235° |
| 2026-05-06 18:04 | -4.44382 | -65.41711 | 38007 ft | 431 kts | 235° |
| 2026-05-06 18:05 | -4.47698 | -65.46717 | 37996 ft | 431 kts | 236° |
| 2026-05-06 18:05 | -4.51009 | -65.51715 | 37983 ft | 430 kts | 236° |
| 2026-05-06 18:06 | -4.54319 | -65.56713 | 37989 ft | 430 kts | 236° |
| 2026-05-06 18:06 | -4.57619 | -65.61697 | 37990 ft | 429 kts | 236° |
| 2026-05-06 18:07 | -4.60919 | -65.66681 | 37980 ft | 429 kts | 236° |
| 2026-05-06 18:07 | -4.64222 | -65.71673 | 37986 ft | 429 kts | 236° |
| 2026-05-06 18:08 | -4.67523 | -65.76662 | 37990 ft | 429 kts | 236° |
| 2026-05-06 18:08 | -4.70825 | -65.81653 | 37983 ft | 430 kts | 236° |
| 2026-05-06 18:09 | -4.74128 | -65.86645 | 37984 ft | 430 kts | 236° |
| 2026-05-06 18:09 | -4.77416 | -65.91612 | 37989 ft | 430 kts | 236° |
| 2026-05-06 18:10 | -4.80724 | -65.96611 | 37985 ft | 430 kts | 236° |
| 2026-05-06 18:10 | -4.84031 | -66.01612 | 37998 ft | 431 kts | 236° |
| 2026-05-06 18:11 | -4.87362 | -66.06649 | 37974 ft | 435 kts | 236° |
| 2026-05-06 18:11 | -4.90674 | -66.11660 | 37977 ft | 426 kts | 236° |
| 2026-05-06 18:12 | -4.93941 | -66.16604 | 37978 ft | 426 kts | 237° |
| 2026-05-06 18:12 | -4.97217 | -66.21562 | 37983 ft | 427 kts | 236° |
| 2026-05-06 18:13 | -5.00498 | -66.26528 | 37984 ft | 428 kts | 236° |
| 2026-05-06 18:13 | -5.03782 | -66.31501 | 37985 ft | 428 kts | 236° |
| 2026-05-06 18:14 | -5.07054 | -66.36456 | 37985 ft | 429 kts | 236° |
| 2026-05-06 18:14 | -5.10347 | -66.41444 | 37981 ft | 429 kts | 236° |
| 2026-05-06 18:15 | -5.13640 | -66.46433 | 37986 ft | 428 kts | 236° |
| 2026-05-06 18:15 | -5.16927 | -66.51414 | 37982 ft | 428 kts | 236° |
| 2026-05-06 18:16 | -5.20205 | -66.56383 | 37985 ft | 427 kts | 236° |
| 2026-05-06 18:16 | -5.23483 | -66.61352 | 37977 ft | 427 kts | 236° |
| 2026-05-06 18:17 | -5.26753 | -66.66311 | 37984 ft | 426 kts | 236° |
| 2026-05-06 18:17 | -5.30025 | -66.71274 | 37978 ft | 426 kts | 236° |
| 2026-05-06 18:18 | -5.33293 | -66.76231 | 37979 ft | 426 kts | 236° |
| 2026-05-06 18:18 | -5.36567 | -66.81201 | 37979 ft | 427 kts | 236° |
| 2026-05-06 18:19 | -5.39840 | -66.86168 | 37982 ft | 427 kts | 236° |
| 2026-05-06 18:19 | -5.43116 | -66.91142 | 37976 ft | 427 kts | 236° |
| 2026-05-06 18:20 | -5.46396 | -66.96123 | 37979 ft | 428 kts | 236° |
| 2026-05-06 18:20 | -5.49677 | -67.01107 | 37978 ft | 428 kts | 236° |
| 2026-05-06 18:21 | -5.52956 | -67.06090 | 37976 ft | 428 kts | 236° |
| 2026-05-06 18:21 | -5.56242 | -67.11084 | 37978 ft | 428 kts | 236° |
| 2026-05-06 18:22 | -5.59528 | -67.16079 | 37977 ft | 429 kts | 236° |
| 2026-05-06 18:22 | -5.62745 | -67.21122 | 37977 ft | 429 kts | 238° |
| 2026-05-06 18:23 | -5.65883 | -67.26211 | 37976 ft | 429 kts | 238° |
| 2026-05-06 18:23 | -5.69000 | -67.31270 | 37970 ft | 429 kts | 238° |
| 2026-05-06 18:24 | -5.72143 | -67.36347 | 37973 ft | 428 kts | 238° |
| 2026-05-06 18:24 | -5.75292 | -67.41425 | 37972 ft | 428 kts | 238° |
| 2026-05-06 18:25 | -5.78440 | -67.46498 | 37970 ft | 428 kts | 238° |
| 2026-05-06 18:25 | -5.81587 | -67.51573 | 37966 ft | 428 kts | 238° |
| 2026-05-06 18:26 | -5.84733 | -67.56645 | 37970 ft | 428 kts | 238° |
| 2026-05-06 18:26 | -5.87879 | -67.61721 | 37968 ft | 428 kts | 238° |
| 2026-05-06 18:27 | -5.91024 | -67.66796 | 37965 ft | 428 kts | 238° |
| 2026-05-06 18:27 | -5.94170 | -67.71873 | 37967 ft | 428 kts | 238° |
| 2026-05-06 18:28 | -5.97317 | -67.76956 | 37967 ft | 428 kts | 238° |
| 2026-05-06 18:28 | -6.00466 | -67.82040 | 37969 ft | 429 kts | 238° |
| 2026-05-06 18:29 | -6.03611 | -67.87121 | 37964 ft | 429 kts | 238° |
| 2026-05-06 18:29 | -6.06765 | -67.92217 | 37963 ft | 429 kts | 238° |
| 2026-05-06 18:30 | -6.09915 | -67.97308 | 37966 ft | 429 kts | 238° |
| 2026-05-06 18:30 | -6.13048 | -68.02373 | 37964 ft | 430 kts | 238° |
| 2026-05-06 18:31 | -6.16203 | -68.07475 | 37961 ft | 430 kts | 238° |
| 2026-05-06 18:31 | -6.19353 | -68.12570 | 37963 ft | 430 kts | 238° |
| 2026-05-06 18:32 | -6.22506 | -68.17672 | 37957 ft | 430 kts | 239° |
| 2026-05-06 18:32 | -6.25661 | -68.22778 | 37960 ft | 430 kts | 239° |
| 2026-05-06 18:33 | -6.28809 | -68.27875 | 37958 ft | 429 kts | 239° |
| 2026-05-06 18:33 | -6.31960 | -68.32976 | 37963 ft | 429 kts | 239° |
| 2026-05-06 18:34 | -6.35107 | -68.38074 | 37959 ft | 429 kts | 239° |
| 2026-05-06 18:34 | -6.38246 | -68.43160 | 37958 ft | 428 kts | 239° |
| 2026-05-06 18:35 | -6.41382 | -68.48244 | 37956 ft | 428 kts | 239° |
| 2026-05-06 18:35 | -6.44518 | -68.53327 | 37957 ft | 427 kts | 239° |
| 2026-05-06 18:36 | -6.47650 | -68.58407 | 37952 ft | 427 kts | 239° |
| 2026-05-06 18:36 | -6.50779 | -68.63482 | 37957 ft | 427 kts | 239° |
| 2026-05-06 18:37 | -6.53378 | -68.67700 | 37956 ft | 427 kts | 239° |
| 2026-05-06 18:37 | -6.57037 | -68.73638 | 37953 ft | 427 kts | 239° |
| 2026-05-06 18:38 | -6.60163 | -68.78714 | 37954 ft | 427 kts | 239° |
| 2026-05-06 18:38 | -6.63273 | -68.83766 | 37955 ft | 427 kts | 239° |
| 2026-05-06 18:39 | -6.66406 | -68.88851 | 37954 ft | 427 kts | 239° |
| 2026-05-06 18:40 | -6.71129 | -68.96505 | 37954 ft | 428 kts | 239° |
| 2026-05-06 18:40 | -6.74243 | -69.01556 | 37949 ft | 428 kts | 239° |
| 2026-05-06 18:41 | -6.77376 | -69.06643 | 37952 ft | 427 kts | 239° |
| 2026-05-06 18:41 | -6.80499 | -69.11726 | 37952 ft | 427 kts | 239° |
| 2026-05-06 18:42 | -6.83625 | -69.16814 | 37952 ft | 427 kts | 239° |
| 2026-05-06 18:42 | -6.86748 | -69.21900 | 37953 ft | 427 kts | 239° |
| 2026-05-06 18:43 | -6.89871 | -69.26987 | 37957 ft | 427 kts | 239° |
| 2026-05-06 18:43 | -6.92995 | -69.32077 | 37919 ft | 427 kts | 238° |
| 2026-05-06 18:43 | -6.94572 | -69.34645 | 37795 ft | 429 kts | 239° |
| 2026-05-06 18:44 | -6.96132 | -69.37188 | 37877 ft | 427 kts | 239° |
| 2026-05-06 18:44 | -6.99246 | -69.42265 | 37947 ft | 425 kts | 239° |
| 2026-05-06 18:45 | -7.02355 | -69.47337 | 37951 ft | 426 kts | 239° |
| 2026-05-06 18:45 | -7.05474 | -69.52425 | 37951 ft | 427 kts | 239° |
| 2026-05-06 18:46 | -7.08598 | -69.57524 | 37955 ft | 429 kts | 239° |
| 2026-05-06 18:46 | -7.11730 | -69.62637 | 37953 ft | 430 kts | 239° |
| 2026-05-06 18:47 | -7.14868 | -69.67761 | 37953 ft | 430 kts | 239° |
| 2026-05-06 18:47 | -7.18007 | -69.72889 | 37955 ft | 431 kts | 239° |
| 2026-05-06 18:48 | -7.21152 | -69.78028 | 37950 ft | 431 kts | 239° |
| 2026-05-06 18:48 | -7.24295 | -69.83167 | 37950 ft | 430 kts | 239° |
| 2026-05-06 18:49 | -7.27432 | -69.88295 | 37954 ft | 430 kts | 239° |
| 2026-05-06 18:49 | -7.30547 | -69.93393 | 37952 ft | 430 kts | 239° |
| 2026-05-06 18:50 | -7.33676 | -69.98520 | 37954 ft | 430 kts | 239° |
| 2026-05-06 18:50 | -7.36805 | -70.03649 | 37952 ft | 430 kts | 239° |
| 2026-05-06 18:51 | -7.39427 | -70.07948 | 37956 ft | 430 kts | 239° |
| 2026-05-06 18:51 | -7.42539 | -70.13053 | 37953 ft | 430 kts | 239° |
| 2026-05-06 18:52 | -7.45670 | -70.18191 | 37955 ft | 430 kts | 239° |
| 2026-05-06 18:52 | -7.48802 | -70.23331 | 37951 ft | 431 kts | 239° |
| 2026-05-06 18:53 | -7.51934 | -70.28474 | 37957 ft | 431 kts | 239° |
| 2026-05-06 18:53 | -7.55067 | -70.33621 | 37950 ft | 431 kts | 239° |
| 2026-05-06 18:54 | -7.58207 | -70.38779 | 37956 ft | 431 kts | 239° |
| 2026-05-06 18:54 | -7.61341 | -70.43932 | 37953 ft | 431 kts | 239° |
| 2026-05-06 18:55 | -7.64466 | -70.49070 | 37953 ft | 430 kts | 239° |
| 2026-05-06 18:55 | -7.67600 | -70.54211 | 37953 ft | 430 kts | 239° |
| 2026-05-06 18:56 | -7.70204 | -70.58481 | 37958 ft | 429 kts | 239° |
| 2026-05-06 18:56 | -7.73067 | -70.63180 | 37951 ft | 429 kts | 239° |
| 2026-05-06 18:57 | -7.76185 | -70.68299 | 37954 ft | 428 kts | 239° |
| 2026-05-06 18:57 | -7.79296 | -70.73409 | 37949 ft | 427 kts | 239° |
| 2026-05-06 18:58 | -7.82405 | -70.78518 | 37952 ft | 427 kts | 239° |
| 2026-05-06 18:58 | -7.85509 | -70.83620 | 37950 ft | 427 kts | 239° |
| 2026-05-06 18:59 | -7.88591 | -70.88688 | 37954 ft | 427 kts | 240° |
| 2026-05-06 18:59 | -7.91695 | -70.93794 | 37952 ft | 427 kts | 240° |
| 2026-05-06 19:00 | -7.94798 | -70.98900 | 37955 ft | 427 kts | 240° |
| 2026-05-06 19:00 | -7.97898 | -71.04004 | 37948 ft | 427 kts | 240° |
| 2026-05-06 19:01 | -8.01004 | -71.09118 | 37948 ft | 427 kts | 240° |
| 2026-05-06 19:01 | -8.04112 | -71.14238 | 37948 ft | 428 kts | 240° |
| 2026-05-06 19:02 | -8.07220 | -71.19360 | 37944 ft | 428 kts | 240° |
| 2026-05-06 19:02 | -8.10329 | -71.24486 | 37929 ft | 428 kts | 239° |
| 2026-05-06 19:03 | -8.13436 | -71.29609 | 37924 ft | 428 kts | 240° |
| 2026-05-06 19:03 | -8.16535 | -71.34722 | 37954 ft | 428 kts | 240° |
| 2026-05-06 19:04 | -8.19642 | -71.39850 | 37948 ft | 428 kts | 240° |
| 2026-05-06 19:04 | -8.22756 | -71.44991 | 37949 ft | 429 kts | 240° |
| 2026-05-06 19:05 | -8.25870 | -71.50135 | 37943 ft | 430 kts | 240° |
| 2026-05-06 19:05 | -8.28986 | -71.55282 | 37947 ft | 430 kts | 240° |
| 2026-05-06 19:06 | -8.32111 | -71.60444 | 37949 ft | 430 kts | 240° |
| 2026-05-06 19:06 | -8.35236 | -71.65604 | 37948 ft | 431 kts | 240° |
| 2026-05-06 19:07 | -8.38357 | -71.70761 | 37947 ft | 430 kts | 240° |
| 2026-05-06 19:07 | -8.41477 | -71.75919 | 37952 ft | 430 kts | 240° |
| 2026-05-06 19:08 | -8.44594 | -71.81075 | 37948 ft | 430 kts | 240° |
| 2026-05-06 19:08 | -8.47688 | -71.86194 | 37950 ft | 429 kts | 240° |
| 2026-05-06 19:09 | -8.50797 | -71.91339 | 37948 ft | 429 kts | 240° |
| 2026-05-06 19:09 | -8.53905 | -71.96486 | 37945 ft | 429 kts | 240° |
| 2026-05-06 19:10 | -8.57006 | -72.01623 | 37949 ft | 428 kts | 240° |
| 2026-05-06 19:10 | -8.60105 | -72.06759 | 37948 ft | 428 kts | 240° |
| 2026-05-06 19:11 | -8.63196 | -72.11883 | 37948 ft | 427 kts | 240° |
| 2026-05-06 19:11 | -8.66287 | -72.17009 | 37947 ft | 427 kts | 240° |
| 2026-05-06 19:12 | -8.69371 | -72.22127 | 37953 ft | 426 kts | 240° |
| 2026-05-06 19:12 | -8.72449 | -72.27235 | 37946 ft | 425 kts | 240° |
| 2026-05-06 19:13 | -8.75518 | -72.32331 | 37954 ft | 424 kts | 240° |
| 2026-05-06 19:13 | -8.78562 | -72.37387 | 37953 ft | 423 kts | 240° |
| 2026-05-06 19:14 | -8.81617 | -72.42466 | 37952 ft | 422 kts | 240° |
| 2026-05-06 19:14 | -8.84668 | -72.47540 | 37954 ft | 422 kts | 240° |
| 2026-05-06 19:15 | -8.87715 | -72.52610 | 37953 ft | 422 kts | 241° |
| 2026-05-06 19:15 | -8.90761 | -72.57680 | 37957 ft | 423 kts | 241° |
| 2026-05-06 19:16 | -8.93818 | -72.62772 | 37955 ft | 424 kts | 241° |
| 2026-05-06 19:16 | -8.96882 | -72.67877 | 37957 ft | 425 kts | 241° |
| 2026-05-06 19:17 | -8.99947 | -72.72985 | 37956 ft | 425 kts | 241° |
| 2026-05-06 19:17 | -9.03021 | -72.78110 | 37954 ft | 426 kts | 241° |
| 2026-05-06 19:18 | -9.06099 | -72.83245 | 37952 ft | 427 kts | 241° |
| 2026-05-06 19:18 | -9.09179 | -72.88384 | 37952 ft | 427 kts | 241° |
| 2026-05-06 19:19 | -9.12260 | -72.93527 | 37944 ft | 427 kts | 241° |
| 2026-05-06 19:19 | -9.15334 | -72.98664 | 37952 ft | 427 kts | 241° |
| 2026-05-06 19:20 | -9.18404 | -73.03805 | 37954 ft | 427 kts | 241° |
| 2026-05-06 19:20 | -9.21472 | -73.08948 | 37950 ft | 426 kts | 242° |
| 2026-05-06 19:21 | -9.24534 | -73.14080 | 37950 ft | 426 kts | 241° |
| 2026-05-06 19:21 | -9.27597 | -73.19216 | 37951 ft | 425 kts | 242° |
| 2026-05-06 19:22 | -9.30651 | -73.24341 | 37951 ft | 425 kts | 241° |
| 2026-05-06 19:22 | -9.33687 | -73.29436 | 37947 ft | 425 kts | 241° |
| 2026-05-06 19:23 | -9.36739 | -73.34562 | 37951 ft | 425 kts | 242° |
| 2026-05-06 19:23 | -9.39788 | -73.39683 | 37947 ft | 425 kts | 241° |
| 2026-05-06 19:24 | -9.42836 | -73.44806 | 37952 ft | 425 kts | 241° |
| 2026-05-06 19:24 | -9.45887 | -73.49928 | 37950 ft | 425 kts | 241° |
| 2026-05-06 19:25 | -9.48941 | -73.55045 | 37946 ft | 425 kts | 241° |
| 2026-05-06 19:25 | -9.51996 | -73.60168 | 37946 ft | 424 kts | 241° |
| 2026-05-06 19:26 | -9.55044 | -73.65281 | 37946 ft | 424 kts | 241° |
| 2026-05-06 19:26 | -9.58089 | -73.70392 | 37944 ft | 424 kts | 241° |
| 2026-05-06 19:27 | -9.61135 | -73.75508 | 37947 ft | 423 kts | 241° |
| 2026-05-06 19:27 | -9.63888 | -73.80737 | 37933 ft | 419 kts | 253° |
| 2026-05-06 19:28 | -9.65013 | -73.86458 | 37945 ft | 412 kts | 269° |
| 2026-05-06 19:28 | -9.65235 | -73.92248 | 37944 ft | 412 kts | 270° |
| 2026-05-06 19:29 | -9.65423 | -73.98053 | 37942 ft | 412 kts | 270° |
| 2026-05-06 19:29 | -9.65639 | -74.03847 | 37949 ft | 412 kts | 270° |
| 2026-05-06 19:30 | -9.65872 | -74.09621 | 37954 ft | 412 kts | 270° |
| 2026-05-06 19:30 | -9.66111 | -74.15424 | 37954 ft | 413 kts | 269° |
| 2026-05-06 19:31 | -9.66352 | -74.21247 | 37966 ft | 413 kts | 269° |
| 2026-05-06 19:31 | -9.66709 | -74.29974 | 37972 ft | 413 kts | 269° |
| 2026-05-06 19:32 | -9.66946 | -74.35792 | 37980 ft | 414 kts | 269° |
| 2026-05-06 19:32 | -9.67182 | -74.41609 | 37983 ft | 414 kts | 269° |
| 2026-05-06 19:33 | -9.67418 | -74.47442 | 37983 ft | 413 kts | 269° |
| 2026-05-06 19:33 | -9.67652 | -74.53265 | 37982 ft | 413 kts | 269° |
| 2026-05-06 19:34 | -9.67884 | -74.59074 | 37982 ft | 413 kts | 269° |
| 2026-05-06 19:34 | -9.68116 | -74.64891 | 37961 ft | 413 kts | 269° |
| 2026-05-06 19:35 | -9.68232 | -74.67819 | 37493 ft | 415 kts | 269° |
| 2026-05-06 19:35 | -9.68347 | -74.70734 | 36954 ft | 415 kts | 269° |
| 2026-05-06 19:35 | -9.68463 | -74.73655 | 36442 ft | 414 kts | 269° |
| 2026-05-06 19:35 | -9.68578 | -74.76567 | 35883 ft | 414 kts | 270° |
| 2026-05-06 19:36 | -9.68692 | -74.79489 | 35247 ft | 417 kts | 270° |
| 2026-05-06 19:36 | -9.68808 | -74.82440 | 34600 ft | 420 kts | 270° |
| 2026-05-06 19:36 | -9.68923 | -74.85408 | 33917 ft | 424 kts | 270° |
| 2026-05-06 19:36 | -9.69040 | -74.88399 | 33259 ft | 425 kts | 270° |
| 2026-05-06 19:37 | -9.69157 | -74.91380 | 32741 ft | 422 kts | 270° |
| 2026-05-06 19:37 | -9.69273 | -74.94344 | 32227 ft | 419 kts | 270° |
| 2026-05-06 19:37 | -9.69388 | -74.97286 | 31726 ft | 417 kts | 270° |
| 2026-05-06 19:37 | -9.69464 | -74.99231 | 31376 ft | 417 kts | 270° |
| 2026-05-06 19:38 | -9.69615 | -75.03111 | 30711 ft | 414 kts | 270° |
| 2026-05-06 19:38 | -9.69691 | -75.05077 | 30379 ft | 414 kts | 270° |
| 2026-05-06 19:38 | -9.69803 | -75.07981 | 29847 ft | 413 kts | 270° |
| 2026-05-06 19:38 | -9.69914 | -75.10883 | 29297 ft | 410 kts | 270° |
| 2026-05-06 19:39 | -9.70025 | -75.13751 | 28753 ft | 406 kts | 269° |
| 2026-05-06 19:39 | -9.70135 | -75.16602 | 28222 ft | 403 kts | 269° |
| 2026-05-06 19:39 | -9.70243 | -75.19427 | 27702 ft | 400 kts | 269° |
| 2026-05-06 19:39 | -9.70350 | -75.22233 | 27187 ft | 397 kts | 269° |
| 2026-05-06 19:40 | -9.70456 | -75.25008 | 26686 ft | 394 kts | 269° |
| 2026-05-06 19:40 | -9.70557 | -75.27776 | 26163 ft | 391 kts | 270° |
| 2026-05-06 19:40 | -9.70320 | -75.30507 | 25655 ft | 388 kts | 283° |
| 2026-05-06 19:40 | -9.69581 | -75.33129 | 24894 ft | 391 kts | 292° |
| 2026-05-06 19:41 | -9.68348 | -75.35571 | 24273 ft | 384 kts | 301° |
| 2026-05-06 19:41 | -9.66978 | -75.37866 | 23678 ft | 377 kts | 302° |
| 2026-05-06 19:41 | -9.65615 | -75.40099 | 22999 ft | 370 kts | 302° |
| 2026-05-06 19:41 | -9.64277 | -75.42297 | 22319 ft | 363 kts | 302° |
| 2026-05-06 19:42 | -9.62967 | -75.44466 | 21662 ft | 357 kts | 301° |
| 2026-05-06 19:42 | -9.61688 | -75.46601 | 21018 ft | 352 kts | 301° |
| 2026-05-06 19:42 | -9.60448 | -75.48682 | 20387 ft | 347 kts | 301° |
| 2026-05-06 19:42 | -9.59194 | -75.50793 | 19777 ft | 343 kts | 300° |
| 2026-05-06 19:43 | -9.57988 | -75.52826 | 19162 ft | 339 kts | 300° |
| 2026-05-06 19:43 | -9.56778 | -75.54865 | 18559 ft | 335 kts | 300° |
| 2026-05-06 19:43 | -9.55584 | -75.56879 | 17938 ft | 332 kts | 300° |
| 2026-05-06 19:43 | -9.54402 | -75.58874 | 17253 ft | 329 kts | 300° |
| 2026-05-06 19:44 | -9.53229 | -75.60850 | 16592 ft | 326 kts | 300° |
| 2026-05-06 19:44 | -9.52065 | -75.62808 | 15943 ft | 323 kts | 300° |
| 2026-05-06 19:44 | -9.50910 | -75.64752 | 15317 ft | 320 kts | 301° |
| 2026-05-06 19:44 | -9.49542 | -75.66515 | 14678 ft | 318 kts | 317° |
| 2026-05-06 19:45 | -9.47633 | -75.67587 | 14052 ft | 315 kts | 346° |
| 2026-05-06 19:45 | -9.45491 | -75.67973 | 13434 ft | 311 kts | 353° |
| 2026-05-06 19:45 | -9.43369 | -75.68348 | 12744 ft | 309 kts | 347° |
| 2026-05-06 19:45 | -9.41299 | -75.68892 | 12103 ft | 306 kts | 345° |
| 2026-05-06 19:46 | -9.39245 | -75.69459 | 11438 ft | 304 kts | 345° |
| 2026-05-06 19:46 | -9.37218 | -75.70031 | 10817 ft | 302 kts | 342° |
| 2026-05-06 19:46 | -9.35279 | -75.70818 | 10200 ft | 299 kts | 336° |
| 2026-05-06 19:46 | -9.33394 | -75.71699 | 9522 ft | 297 kts | 333° |
| 2026-05-06 19:47 | -9.31605 | -75.72727 | 8835 ft | 295 kts | 329° |
| 2026-05-06 19:47 | -9.29859 | -75.73816 | 8138 ft | 297 kts | 328° |
| 2026-05-06 19:47 | -9.28182 | -75.75010 | 7969 ft | 286 kts | 328° |
| 2026-05-06 19:47 | -9.26559 | -75.76074 | 7984 ft | 270 kts | 329° |
| 2026-05-06 19:48 | -9.25007 | -75.77005 | 8040 ft | 249 kts | 329° |
| 2026-05-06 19:48 | -9.23535 | -75.77876 | 8068 ft | 243 kts | 330° |
| 2026-05-06 19:48 | -9.22063 | -75.78747 | 8071 ft | 247 kts | 330° |
| 2026-05-06 19:48 | -9.20581 | -75.79624 | 8078 ft | 247 kts | 330° |
| 2026-05-06 19:49 | -9.19098 | -75.80496 | 8064 ft | 247 kts | 330° |
| 2026-05-06 19:49 | -9.17608 | -75.81374 | 8060 ft | 247 kts | 330° |
| 2026-05-06 19:49 | -9.16128 | -75.82247 | 8062 ft | 247 kts | 330° |
| 2026-05-06 19:49 | -9.14647 | -75.83127 | 8060 ft | 246 kts | 328° |
| 2026-05-06 19:50 | -9.13231 | -75.84093 | 8065 ft | 246 kts | 325° |
| 2026-05-06 19:50 | -9.11829 | -75.85087 | 8058 ft | 246 kts | 325° |
| 2026-05-06 19:50 | -9.10436 | -75.86088 | 8052 ft | 246 kts | 324° |
| 2026-05-06 19:50 | -9.09106 | -75.87175 | 8043 ft | 248 kts | 315° |
| 2026-05-06 19:51 | -9.07903 | -75.88404 | 8067 ft | 242 kts | 315° |
| 2026-05-06 19:51 | -9.06766 | -75.89561 | 7968 ft | 229 kts | 315° |
| 2026-05-06 19:51 | -9.05655 | -75.90689 | 7850 ft | 225 kts | 315° |
| 2026-05-06 19:51 | -9.04546 | -75.91816 | 7731 ft | 227 kts | 315° |
| 2026-05-06 19:52 | -9.03491 | -75.92988 | 7604 ft | 225 kts | 301° |
| 2026-05-06 19:52 | -9.03104 | -75.94498 | 7409 ft | 222 kts | 275° |
| 2026-05-06 19:52 | -9.02957 | -75.96066 | 7021 ft | 221 kts | 275° |
| 2026-05-06 19:52 | -9.02821 | -75.97555 | 6621 ft | 204 kts | 274° |
| 2026-05-06 19:53 | -9.03120 | -75.98866 | 6196 ft | 189 kts | 232° |
| 2026-05-06 19:53 | -9.04187 | -75.99484 | 5809 ft | 175 kts | 185° |
| 2026-05-06 19:53 | -9.05372 | -75.99477 | 5447 ft | 167 kts | 176° |
| 2026-05-06 19:53 | -9.06530 | -75.99418 | 5064 ft | 166 kts | 176° |
| 2026-05-06 19:54 | -9.07684 | -75.99358 | 4698 ft | 167 kts | 176° |
| 2026-05-06 19:54 | -9.08854 | -75.99303 | 4326 ft | 169 kts | 176° |
| 2026-05-06 19:54 | -9.10021 | -75.99272 | 4063 ft | 168 kts | 182° |
| 2026-05-06 19:54 | -9.11177 | -75.99340 | 4035 ft | 161 kts | 183° |
| 2026-05-06 19:55 | -9.12254 | -75.99404 | 4047 ft | 152 kts | 183° |
| 2026-05-06 19:55 | -9.13345 | -75.99461 | 3814 ft | 160 kts | 183° |
| 2026-05-06 19:55 | -9.14445 | -75.99523 | 3538 ft | 156 kts | 183° |
| 2026-05-06 19:55 | -9.15516 | -75.99527 | 3281 ft | 153 kts | 176° |
| 2026-05-06 19:56 | -9.16575 | -75.99440 | 3141 ft | 151 kts | 174° |
| 2026-05-06 19:56 | -9.17630 | -75.99358 | 3138 ft | 154 kts | 173° |
| 2026-05-06 19:56 | -9.18697 | -75.99265 | 3183 ft | 155 kts | 174° |
| 2026-05-06 19:56 | -9.19761 | -75.99300 | 3182 ft | 148 kts | 186° |
| 2026-05-06 19:57 | -9.20778 | -75.99407 | 3157 ft | 147 kts | 184° |
| 2026-05-06 19:57 | -9.21807 | -75.99475 | 2971 ft | 147 kts | 182° |
| 2026-05-06 19:57 | -9.22813 | -75.99604 | 2818 ft | 144 kts | 190° |
| 2026-05-06 19:57 | -9.23763 | -75.99854 | 2763 ft | 142 kts | 196° |
| 2026-05-06 19:58 | -9.24736 | -76.00068 | 2668 ft | 148 kts | 187° |
| 2026-05-06 19:58 | -9.25758 | -76.00188 | 2566 ft | 147 kts | 186° |
| 2026-05-06 19:58 | -9.26763 | -76.00294 | 2455 ft | 143 kts | 187° |
| 2026-05-06 19:58 | -9.27760 | -76.00386 | 2260 ft | 143 kts | 186° |
| 2026-05-06 19:59 | -9.28741 | -76.00484 | 2115 ft | 134 kts | 186° |
| 2026-05-06 19:59 | -9.29346 | -76.00544 | 2115 ft | 52 kts | 184° |
| 2026-05-06 19:59 | -9.29579 | -76.00528 | 2116 ft | 13 kts | 157° |
| 2026-05-06 19:59 | -9.29644 | -76.00488 | 2116 ft | 9 kts | 156° |
| 2026-05-06 20:00 | -9.29650 | -76.00486 | 2116 ft | 2 kts | 169° |
| 2026-05-06 20:00 | -9.29669 | -76.00480 | 2116 ft | 1 kts | 170° |
| 2026-05-06 20:00 | -9.29678 | -76.00481 | 2116 ft | 0 kts | 182° |